sensor_id;sensor_type;location;lat;lon;timestamp;temperature;humidity
41533;DHT22;27262;-35.248;149.138;2023-12-20T00:02:22;23.20;62.50
41533;DHT22;27262;-35.248;149.138;2023-12-20T00:04:52;23.20;62.30
41533;DHT22;27262;-35.248;149.138;2023-12-20T00:07:23;23.20;62.60
41533;DHT22;27262;-35.248;149.138;2023-12-20T00:09:53;23.20;62.70
41533;DHT22;27262;-35.248;149.138;2023-12-20T00:12:24;23.20;62.60
41533;DHT22;27262;-35.248;149.138;2023-12-20T00:14:54;23.20;62.50
41533;DHT22;27262;-35.248;149.138;2023-12-20T00:17:24;23.20;62.60
41533;DHT22;27262;-35.248;149.138;2023-12-20T00:19:55;23.20;62.80
41533;DHT22;27262;-35.248;149.138;2023-12-20T00:22:25;23.20;62.80
41533;DHT22;27262;-35.248;149.138;2023-12-20T00:24:55;23.20;62.70
41533;DHT22;27262;-35.248;149.138;2023-12-20T00:27:26;23.20;62.80
41533;DHT22;27262;-35.248;149.138;2023-12-20T00:29:56;23.20;62.80
41533;DHT22;27262;-35.248;149.138;2023-12-20T00:32:27;23.20;63.00
41533;DHT22;27262;-35.248;149.138;2023-12-20T00:34:57;23.20;63.00
41533;DHT22;27262;-35.248;149.138;2023-12-20T00:37:27;23.20;63.00
41533;DHT22;27262;-35.248;149.138;2023-12-20T00:39:58;23.20;63.00
41533;DHT22;27262;-35.248;149.138;2023-12-20T00:42:48;23.20;63.00
41533;DHT22;27262;-35.248;149.138;2023-12-20T00:45:19;23.20;63.00
41533;DHT22;27262;-35.248;149.138;2023-12-20T00:47:50;23.20;63.00
41533;DHT22;27262;-35.248;149.138;2023-12-20T00:50:20;23.20;63.00
41533;DHT22;27262;-35.248;149.138;2023-12-20T00:52:54;23.30;63.00
41533;DHT22;27262;-35.248;149.138;2023-12-20T00:55:25;23.20;63.00
41533;DHT22;27262;-35.248;149.138;2023-12-20T00:57:56;23.20;63.00
41533;DHT22;27262;-35.248;149.138;2023-12-20T01:00:28;23.20;63.00
41533;DHT22;27262;-35.248;149.138;2023-12-20T01:02:59;23.20;63.00
41533;DHT22;27262;-35.248;149.138;2023-12-20T01:05:29;23.20;63.00
41533;DHT22;27262;-35.248;149.138;2023-12-20T01:07:59;23.20;63.40
41533;DHT22;27262;-35.248;149.138;2023-12-20T01:10:32;23.20;62.80
41533;DHT22;27262;-35.248;149.138;2023-12-20T01:13:03;23.20;62.80
41533;DHT22;27262;-35.248;149.138;2023-12-20T01:15:36;23.20;62.80
41533;DHT22;27262;-35.248;149.138;2023-12-20T01:18:06;23.20;62.80
41533;DHT22;27262;-35.248;149.138;2023-12-20T01:20:37;23.20;62.90
41533;DHT22;27262;-35.248;149.138;2023-12-20T01:23:07;23.20;63.00
41533;DHT22;27262;-35.248;149.138;2023-12-20T01:25:37;23.20;63.10
41533;DHT22;27262;-35.248;149.138;2023-12-20T01:28:08;23.20;63.10
41533;DHT22;27262;-35.248;149.138;2023-12-20T01:30:38;23.20;63.20
41533;DHT22;27262;-35.248;149.138;2023-12-20T01:33:09;23.20;63.30
41533;DHT22;27262;-35.248;149.138;2023-12-20T01:35:39;23.20;63.30
41533;DHT22;27262;-35.248;149.138;2023-12-20T01:38:09;23.10;63.40
41533;DHT22;27262;-35.248;149.138;2023-12-20T01:40:40;23.10;63.40
41533;DHT22;27262;-35.248;149.138;2023-12-20T01:43:10;23.10;63.30
41533;DHT22;27262;-35.248;149.138;2023-12-20T01:45:44;23.10;63.40
41533;DHT22;27262;-35.248;149.138;2023-12-20T01:48:15;23.10;63.30
41533;DHT22;27262;-35.248;149.138;2023-12-20T01:50:46;23.10;63.30
41533;DHT22;27262;-35.248;149.138;2023-12-20T01:53:20;23.10;63.30
41533;DHT22;27262;-35.248;149.138;2023-12-20T01:55:54;23.10;63.30
41533;DHT22;27262;-35.248;149.138;2023-12-20T01:58:25;23.10;63.20
41533;DHT22;27262;-35.248;149.138;2023-12-20T02:00:56;23.10;63.20
41533;DHT22;27262;-35.248;149.138;2023-12-20T02:03:27;23.10;63.20
41533;DHT22;27262;-35.248;149.138;2023-12-20T02:05:58;23.10;63.10
41533;DHT22;27262;-35.248;149.138;2023-12-20T02:08:29;23.10;63.10
41533;DHT22;27262;-35.248;149.138;2023-12-20T02:10:59;23.10;63.10
41533;DHT22;27262;-35.248;149.138;2023-12-20T02:13:31;23.10;63.20
41533;DHT22;27262;-35.248;149.138;2023-12-20T02:16:01;23.10;63.20
41533;DHT22;27262;-35.248;149.138;2023-12-20T02:18:32;23.10;63.20
41533;DHT22;27262;-35.248;149.138;2023-12-20T02:21:05;23.10;63.10
41533;DHT22;27262;-35.248;149.138;2023-12-20T02:23:35;23.10;63.10
41533;DHT22;27262;-35.248;149.138;2023-12-20T02:26:06;23.10;63.10
41533;DHT22;27262;-35.248;149.138;2023-12-20T02:28:36;23.10;63.10
41533;DHT22;27262;-35.248;149.138;2023-12-20T02:31:07;23.10;63.00
41533;DHT22;27262;-35.248;149.138;2023-12-20T02:33:37;23.10;63.00
41533;DHT22;27262;-35.248;149.138;2023-12-20T02:36:09;23.10;63.00
41533;DHT22;27262;-35.248;149.138;2023-12-20T02:38:39;23.10;63.00
41533;DHT22;27262;-35.248;149.138;2023-12-20T02:41:30;23.10;63.00
41533;DHT22;27262;-35.248;149.138;2023-12-20T02:44:03;23.10;63.00
41533;DHT22;27262;-35.248;149.138;2023-12-20T02:46:33;23.10;63.00
41533;DHT22;27262;-35.248;149.138;2023-12-20T02:49:04;23.10;63.10
41533;DHT22;27262;-35.248;149.138;2023-12-20T02:51:34;23.10;63.10
41533;DHT22;27262;-35.248;149.138;2023-12-20T02:54:07;23.10;63.00
41533;DHT22;27262;-35.248;149.138;2023-12-20T02:56:38;23.10;63.00
41533;DHT22;27262;-35.248;149.138;2023-12-20T02:59:08;23.10;63.20
41533;DHT22;27262;-35.248;149.138;2023-12-20T03:01:46;23.10;63.10
41533;DHT22;27262;-35.248;149.138;2023-12-20T03:04:16;23.10;62.80
41533;DHT22;27262;-35.248;149.138;2023-12-20T03:06:47;23.10;63.00
41533;DHT22;27262;-35.248;149.138;2023-12-20T03:09:17;23.10;63.00
41533;DHT22;27262;-35.248;149.138;2023-12-20T03:11:48;23.10;62.80
41533;DHT22;27262;-35.248;149.138;2023-12-20T03:14:18;23.10;63.60
41533;DHT22;27262;-35.248;149.138;2023-12-20T03:16:52;23.10;62.70
41533;DHT22;27262;-35.248;149.138;2023-12-20T03:19:23;23.10;62.70
41533;DHT22;27262;-35.248;149.138;2023-12-20T03:21:53;23.10;62.70
41533;DHT22;27262;-35.248;149.138;2023-12-20T03:24:23;23.10;62.70
41533;DHT22;27262;-35.248;149.138;2023-12-20T03:26:54;23.10;62.70
41533;DHT22;27262;-35.248;149.138;2023-12-20T03:29:24;23.10;62.70
41533;DHT22;27262;-35.248;149.138;2023-12-20T03:32:15;23.10;62.80
41533;DHT22;27262;-35.248;149.138;2023-12-20T03:34:45;23.00;62.80
41533;DHT22;27262;-35.248;149.138;2023-12-20T03:37:16;23.10;62.70
41533;DHT22;27262;-35.248;149.138;2023-12-20T03:39:46;23.10;62.60
41533;DHT22;27262;-35.248;149.138;2023-12-20T03:42:37;23.10;62.60
41533;DHT22;27262;-35.248;149.138;2023-12-20T03:45:10;23.10;62.60
41533;DHT22;27262;-35.248;149.138;2023-12-20T03:47:40;23.10;62.50
41533;DHT22;27262;-35.248;149.138;2023-12-20T03:50:11;23.10;62.60
41533;DHT22;27262;-35.248;149.138;2023-12-20T03:52:41;23.10;62.50
41533;DHT22;27262;-35.248;149.138;2023-12-20T03:55:12;23.10;62.50
41533;DHT22;27262;-35.248;149.138;2023-12-20T03:57:42;23.10;62.40
41533;DHT22;27262;-35.248;149.138;2023-12-20T04:00:13;23.00;62.30
41533;DHT22;27262;-35.248;149.138;2023-12-20T04:02:44;23.10;62.30
41533;DHT22;27262;-35.248;149.138;2023-12-20T04:05:14;23.10;62.20
41533;DHT22;27262;-35.248;149.138;2023-12-20T04:07:45;23.00;62.10
41533;DHT22;27262;-35.248;149.138;2023-12-20T04:10:15;23.10;62.20
41533;DHT22;27262;-35.248;149.138;2023-12-20T04:12:46;23.00;62.10
41533;DHT22;27262;-35.248;149.138;2023-12-20T04:15:16;23.00;62.10
41533;DHT22;27262;-35.248;149.138;2023-12-20T04:17:46;23.10;62.10
41533;DHT22;27262;-35.248;149.138;2023-12-20T04:20:17;23.00;62.10
41533;DHT22;27262;-35.248;149.138;2023-12-20T04:22:48;23.10;62.10
41533;DHT22;27262;-35.248;149.138;2023-12-20T04:25:21;23.00;62.80
41533;DHT22;27262;-35.248;149.138;2023-12-20T04:27:51;23.00;62.00
41533;DHT22;27262;-35.248;149.138;2023-12-20T04:30:22;23.00;61.90
41533;DHT22;27262;-35.248;149.138;2023-12-20T04:32:53;23.00;61.90
41533;DHT22;27262;-35.248;149.138;2023-12-20T04:35:23;23.00;61.80
41533;DHT22;27262;-35.248;149.138;2023-12-20T04:37:54;23.00;61.90
41533;DHT22;27262;-35.248;149.138;2023-12-20T04:40:25;23.00;61.90
41533;DHT22;27262;-35.248;149.138;2023-12-20T04:42:55;23.00;61.70
41533;DHT22;27262;-35.248;149.138;2023-12-20T04:45:27;23.00;61.70
41533;DHT22;27262;-35.248;149.138;2023-12-20T04:48:18;23.00;61.70
41533;DHT22;27262;-35.248;149.138;2023-12-20T04:50:48;23.00;61.70
41533;DHT22;27262;-35.248;149.138;2023-12-20T04:53:19;23.00;61.60
41533;DHT22;27262;-35.248;149.138;2023-12-20T04:55:49;23.00;61.60
41533;DHT22;27262;-35.248;149.138;2023-12-20T04:58:19;23.00;61.50
41533;DHT22;27262;-35.248;149.138;2023-12-20T05:00:50;23.00;61.60
41533;DHT22;27262;-35.248;149.138;2023-12-20T05:03:20;23.00;61.80
41533;DHT22;27262;-35.248;149.138;2023-12-20T05:05:50;23.00;61.80
41533;DHT22;27262;-35.248;149.138;2023-12-20T05:08:24;23.00;61.80
41533;DHT22;27262;-35.248;149.138;2023-12-20T05:10:55;23.00;61.80
41533;DHT22;27262;-35.248;149.138;2023-12-20T05:13:25;23.00;61.70
41533;DHT22;27262;-35.248;149.138;2023-12-20T05:16:08;23.00;61.60
41533;DHT22;27262;-35.248;149.138;2023-12-20T05:18:39;23.00;61.70
41533;DHT22;27262;-35.248;149.138;2023-12-20T05:21:09;23.00;61.60
41533;DHT22;27262;-35.248;149.138;2023-12-20T05:23:40;23.00;61.60
41533;DHT22;27262;-35.248;149.138;2023-12-20T05:26:10;23.00;61.60
41533;DHT22;27262;-35.248;149.138;2023-12-20T05:28:40;23.00;61.60
41533;DHT22;27262;-35.248;149.138;2023-12-20T05:31:11;23.00;61.60
41533;DHT22;27262;-35.248;149.138;2023-12-20T05:33:41;23.00;61.60
41533;DHT22;27262;-35.248;149.138;2023-12-20T05:36:12;23.00;61.70
41533;DHT22;27262;-35.248;149.138;2023-12-20T05:38:44;23.00;61.60
41533;DHT22;27262;-35.248;149.138;2023-12-20T05:41:14;22.90;61.50
41533;DHT22;27262;-35.248;149.138;2023-12-20T05:43:45;23.00;61.60
41533;DHT22;27262;-35.248;149.138;2023-12-20T05:46:15;23.00;61.60
41533;DHT22;27262;-35.248;149.138;2023-12-20T05:48:46;23.00;61.70
41533;DHT22;27262;-35.248;149.138;2023-12-20T05:51:17;22.90;61.70
41533;DHT22;27262;-35.248;149.138;2023-12-20T05:54:09;23.00;61.70
41533;DHT22;27262;-35.248;149.138;2023-12-20T05:56:39;22.90;61.40
41533;DHT22;27262;-35.248;149.138;2023-12-20T05:59:10;23.00;61.60
41533;DHT22;27262;-35.248;149.138;2023-12-20T06:01:40;23.00;61.40
41533;DHT22;27262;-35.248;149.138;2023-12-20T06:04:11;23.00;61.40
41533;DHT22;27262;-35.248;149.138;2023-12-20T06:06:42;22.90;61.30
41533;DHT22;27262;-35.248;149.138;2023-12-20T06:09:13;22.90;61.20
41533;DHT22;27262;-35.248;149.138;2023-12-20T06:11:44;22.90;61.90
41533;DHT22;27262;-35.248;149.138;2023-12-20T06:14:15;23.00;61.10
41533;DHT22;27262;-35.248;149.138;2023-12-20T06:16:46;22.90;61.00
41533;DHT22;27262;-35.248;149.138;2023-12-20T06:19:16;23.00;61.00
41533;DHT22;27262;-35.248;149.138;2023-12-20T06:21:47;22.90;61.10
41533;DHT22;27262;-35.248;149.138;2023-12-20T06:24:17;22.90;61.10
41533;DHT22;27262;-35.248;149.138;2023-12-20T06:26:47;23.00;61.00
41533;DHT22;27262;-35.248;149.138;2023-12-20T06:29:18;22.90;60.90
41533;DHT22;27262;-35.248;149.138;2023-12-20T06:31:48;22.90;60.90
41533;DHT22;27262;-35.248;149.138;2023-12-20T06:34:18;22.90;60.90
41533;DHT22;27262;-35.248;149.138;2023-12-20T06:36:49;23.00;60.90
41533;DHT22;27262;-35.248;149.138;2023-12-20T06:39:28;22.90;60.90
41533;DHT22;27262;-35.248;149.138;2023-12-20T06:42:00;22.90;60.80
41533;DHT22;27262;-35.248;149.138;2023-12-20T06:44:30;22.90;60.90
41533;DHT22;27262;-35.248;149.138;2023-12-20T06:47:02;22.90;60.90
41533;DHT22;27262;-35.248;149.138;2023-12-20T06:49:32;22.90;60.90
41533;DHT22;27262;-35.248;149.138;2023-12-20T06:52:03;22.90;60.80
41533;DHT22;27262;-35.248;149.138;2023-12-20T06:54:33;22.90;60.70
41533;DHT22;27262;-35.248;149.138;2023-12-20T06:57:06;22.90;60.70
41533;DHT22;27262;-35.248;149.138;2023-12-20T06:59:42;22.90;60.70
41533;DHT22;27262;-35.248;149.138;2023-12-20T07:02:13;23.00;60.70
41533;DHT22;27262;-35.248;149.138;2023-12-20T07:04:44;22.90;60.80
41533;DHT22;27262;-35.248;149.138;2023-12-20T07:07:14;22.90;60.60
41533;DHT22;27262;-35.248;149.138;2023-12-20T07:09:44;22.90;60.50
41533;DHT22;27262;-35.248;149.138;2023-12-20T07:12:15;22.90;60.40
41533;DHT22;27262;-35.248;149.138;2023-12-20T07:14:46;22.90;60.40
41533;DHT22;27262;-35.248;149.138;2023-12-20T07:17:16;22.90;60.40
41533;DHT22;27262;-35.248;149.138;2023-12-20T07:19:46;22.90;60.40
41533;DHT22;27262;-35.248;149.138;2023-12-20T07:22:17;22.90;60.40
41533;DHT22;27262;-35.248;149.138;2023-12-20T07:24:47;22.90;60.30
41533;DHT22;27262;-35.248;149.138;2023-12-20T07:27:19;22.90;60.30
41533;DHT22;27262;-35.248;149.138;2023-12-20T07:29:49;22.90;60.30
41533;DHT22;27262;-35.248;149.138;2023-12-20T07:32:20;22.80;60.30
41533;DHT22;27262;-35.248;149.138;2023-12-20T07:34:50;22.90;60.30
41533;DHT22;27262;-35.248;149.138;2023-12-20T07:37:20;22.80;60.20
41533;DHT22;27262;-35.248;149.138;2023-12-20T07:39:51;22.90;60.10
41533;DHT22;27262;-35.248;149.138;2023-12-20T07:42:21;22.80;60.00
41533;DHT22;27262;-35.248;149.138;2023-12-20T07:44:52;22.80;59.90
41533;DHT22;27262;-35.248;149.138;2023-12-20T07:47:22;22.80;59.70
41533;DHT22;27262;-35.248;149.138;2023-12-20T07:49:54;22.80;59.70
41533;DHT22;27262;-35.248;149.138;2023-12-20T07:52:25;22.80;59.70
41533;DHT22;27262;-35.248;149.138;2023-12-20T07:54:56;22.80;59.70
41533;DHT22;27262;-35.248;149.138;2023-12-20T07:57:29;22.80;59.70
41533;DHT22;27262;-35.248;149.138;2023-12-20T08:00:00;22.80;59.70
41533;DHT22;27262;-35.248;149.138;2023-12-20T08:02:30;22.80;59.80
41533;DHT22;27262;-35.248;149.138;2023-12-20T08:05:01;22.80;59.80
41533;DHT22;27262;-35.248;149.138;2023-12-20T08:07:32;22.80;59.80
41533;DHT22;27262;-35.248;149.138;2023-12-20T08:10:02;22.70;59.80
41533;DHT22;27262;-35.248;149.138;2023-12-20T08:12:33;22.70;59.80
41533;DHT22;27262;-35.248;149.138;2023-12-20T08:15:03;22.70;59.80
41533;DHT22;27262;-35.248;149.138;2023-12-20T08:17:34;22.70;59.90
41533;DHT22;27262;-35.248;149.138;2023-12-20T08:20:05;22.70;59.80
41533;DHT22;27262;-35.248;149.138;2023-12-20T08:22:35;22.70;59.80
41533;DHT22;27262;-35.248;149.138;2023-12-20T08:25:06;22.70;59.90
41533;DHT22;27262;-35.248;149.138;2023-12-20T08:27:42;22.70;59.90
41533;DHT22;27262;-35.248;149.138;2023-12-20T08:30:13;22.70;59.80
41533;DHT22;27262;-35.248;149.138;2023-12-20T08:32:43;22.70;59.90
41533;DHT22;27262;-35.248;149.138;2023-12-20T08:35:14;22.70;59.90
41533;DHT22;27262;-35.248;149.138;2023-12-20T08:37:44;22.70;60.60
41533;DHT22;27262;-35.248;149.138;2023-12-20T08:40:14;22.70;59.90
41533;DHT22;27262;-35.248;149.138;2023-12-20T08:42:45;22.70;59.90
41533;DHT22;27262;-35.248;149.138;2023-12-20T08:45:15;22.70;59.90
41533;DHT22;27262;-35.248;149.138;2023-12-20T08:47:45;22.70;59.90
41533;DHT22;27262;-35.248;149.138;2023-12-20T08:50:17;22.70;59.90
41533;DHT22;27262;-35.248;149.138;2023-12-20T08:52:47;22.70;60.00
41533;DHT22;27262;-35.248;149.138;2023-12-20T08:55:18;22.70;59.90
41533;DHT22;27262;-35.248;149.138;2023-12-20T08:57:49;22.70;60.00
41533;DHT22;27262;-35.248;149.138;2023-12-20T09:00:20;22.60;60.70
41533;DHT22;27262;-35.248;149.138;2023-12-20T09:02:54;22.60;60.00
41533;DHT22;27262;-35.248;149.138;2023-12-20T09:05:25;22.60;59.90
41533;DHT22;27262;-35.248;149.138;2023-12-20T09:07:55;22.70;60.00
41533;DHT22;27262;-35.248;149.138;2023-12-20T09:10:25;22.60;59.90
41533;DHT22;27262;-35.248;149.138;2023-12-20T09:12:56;22.60;59.90
41533;DHT22;27262;-35.248;149.138;2023-12-20T09:15:27;22.60;60.00
41533;DHT22;27262;-35.248;149.138;2023-12-20T09:18:03;22.60;60.10
41533;DHT22;27262;-35.248;149.138;2023-12-20T09:20:34;22.60;60.20
41533;DHT22;27262;-35.248;149.138;2023-12-20T09:23:08;22.60;60.10
41533;DHT22;27262;-35.248;149.138;2023-12-20T09:25:38;22.60;60.10
41533;DHT22;27262;-35.248;149.138;2023-12-20T09:28:08;22.60;60.10
41533;DHT22;27262;-35.248;149.138;2023-12-20T09:30:39;22.60;60.10
41533;DHT22;27262;-35.248;149.138;2023-12-20T09:33:09;22.60;60.10
41533;DHT22;27262;-35.248;149.138;2023-12-20T09:35:40;22.60;60.10
41533;DHT22;27262;-35.248;149.138;2023-12-20T09:38:10;22.70;60.20
41533;DHT22;27262;-35.248;149.138;2023-12-20T09:40:42;22.60;60.10
41533;DHT22;27262;-35.248;149.138;2023-12-20T09:43:19;22.60;60.10
41533;DHT22;27262;-35.248;149.138;2023-12-20T09:45:53;22.60;60.00
41533;DHT22;27262;-35.248;149.138;2023-12-20T09:48:26;22.60;60.10
41533;DHT22;27262;-35.248;149.138;2023-12-20T09:50:56;22.60;60.10
41533;DHT22;27262;-35.248;149.138;2023-12-20T09:53:27;22.60;60.10
41533;DHT22;27262;-35.248;149.138;2023-12-20T09:55:59;22.60;60.10
41533;DHT22;27262;-35.248;149.138;2023-12-20T09:58:32;22.60;60.10
41533;DHT22;27262;-35.248;149.138;2023-12-20T10:01:03;22.60;60.00
41533;DHT22;27262;-35.248;149.138;2023-12-20T10:03:34;22.60;60.10
41533;DHT22;27262;-35.248;149.138;2023-12-20T10:06:05;22.60;60.10
41533;DHT22;27262;-35.248;149.138;2023-12-20T10:08:36;22.60;60.00
41533;DHT22;27262;-35.248;149.138;2023-12-20T10:11:07;22.60;60.00
41533;DHT22;27262;-35.248;149.138;2023-12-20T10:13:42;22.60;60.00
41533;DHT22;27262;-35.248;149.138;2023-12-20T10:16:13;22.60;60.00
41533;DHT22;27262;-35.248;149.138;2023-12-20T10:18:45;22.60;60.00
41533;DHT22;27262;-35.248;149.138;2023-12-20T10:21:17;22.60;60.00
41533;DHT22;27262;-35.248;149.138;2023-12-20T10:23:48;22.60;60.00
41533;DHT22;27262;-35.248;149.138;2023-12-20T10:26:25;22.60;60.00
41533;DHT22;27262;-35.248;149.138;2023-12-20T10:29:00;22.60;59.90
41533;DHT22;27262;-35.248;149.138;2023-12-20T10:31:33;22.60;59.90
41533;DHT22;27262;-35.248;149.138;2023-12-20T10:34:05;22.60;60.00
41533;DHT22;27262;-35.248;149.138;2023-12-20T10:36:35;22.60;59.90
41533;DHT22;27262;-35.248;149.138;2023-12-20T10:39:08;22.60;59.80
41533;DHT22;27262;-35.248;149.138;2023-12-20T10:41:44;22.60;59.80
41533;DHT22;27262;-35.248;149.138;2023-12-20T10:44:16;22.60;59.80
41533;DHT22;27262;-35.248;149.138;2023-12-20T10:46:47;22.60;59.80
41533;DHT22;27262;-35.248;149.138;2023-12-20T10:49:20;22.50;59.80
41533;DHT22;27262;-35.248;149.138;2023-12-20T10:51:53;22.50;59.80
41533;DHT22;27262;-35.248;149.138;2023-12-20T10:54:25;22.50;59.70
41533;DHT22;27262;-35.248;149.138;2023-12-20T10:56:57;22.50;59.70
41533;DHT22;27262;-35.248;149.138;2023-12-20T10:59:29;22.50;59.80
41533;DHT22;27262;-35.248;149.138;2023-12-20T11:02:00;22.50;59.70
41533;DHT22;27262;-35.248;149.138;2023-12-20T11:08:26;22.50;59.60
41533;DHT22;27262;-35.248;149.138;2023-12-20T11:11:29;22.50;59.80
41533;DHT22;27262;-35.248;149.138;2023-12-20T11:14:08;22.50;59.70
41533;DHT22;27262;-35.248;149.138;2023-12-20T11:16:39;22.50;59.70
41533;DHT22;27262;-35.248;149.138;2023-12-20T11:19:21;22.50;59.70
41533;DHT22;27262;-35.248;149.138;2023-12-20T11:21:52;22.40;59.60
41533;DHT22;27262;-35.248;149.138;2023-12-20T11:24:25;22.40;59.60
41533;DHT22;27262;-35.248;149.138;2023-12-20T11:26:57;22.40;59.50
41533;DHT22;27262;-35.248;149.138;2023-12-20T11:29:34;22.40;59.50
41533;DHT22;27262;-35.248;149.138;2023-12-20T11:34:57;22.40;59.30
41533;DHT22;27262;-35.248;149.138;2023-12-20T11:37:35;22.40;59.50
41533;DHT22;27262;-35.248;149.138;2023-12-20T11:40:07;22.40;59.40
41533;DHT22;27262;-35.248;149.138;2023-12-20T11:42:43;22.40;59.40
41533;DHT22;27262;-35.248;149.138;2023-12-20T11:45:19;22.40;59.50
41533;DHT22;27262;-35.248;149.138;2023-12-20T11:47:53;22.40;59.50
41533;DHT22;27262;-35.248;149.138;2023-12-20T11:50:24;22.40;59.50
41533;DHT22;27262;-35.248;149.138;2023-12-20T11:52:56;22.40;59.50
41533;DHT22;27262;-35.248;149.138;2023-12-20T11:55:26;22.40;59.40
41533;DHT22;27262;-35.248;149.138;2023-12-20T11:57:57;22.30;59.40
41533;DHT22;27262;-35.248;149.138;2023-12-20T12:00:27;22.30;59.40
41533;DHT22;27262;-35.248;149.138;2023-12-20T12:03:01;22.30;59.40
41533;DHT22;27262;-35.248;149.138;2023-12-20T12:05:33;22.30;59.30
41533;DHT22;27262;-35.248;149.138;2023-12-20T12:08:04;22.30;59.40
41533;DHT22;27262;-35.248;149.138;2023-12-20T12:10:36;22.30;59.40
41533;DHT22;27262;-35.248;149.138;2023-12-20T12:13:06;22.30;59.40
41533;DHT22;27262;-35.248;149.138;2023-12-20T12:15:37;22.30;59.40
41533;DHT22;27262;-35.248;149.138;2023-12-20T12:18:08;22.30;59.40
41533;DHT22;27262;-35.248;149.138;2023-12-20T12:20:40;22.30;59.40
41533;DHT22;27262;-35.248;149.138;2023-12-20T12:23:11;22.20;59.30
41533;DHT22;27262;-35.248;149.138;2023-12-20T12:25:41;22.20;59.30
41533;DHT22;27262;-35.248;149.138;2023-12-20T12:28:12;22.20;59.30
41533;DHT22;27262;-35.248;149.138;2023-12-20T12:30:57;22.20;59.30
41533;DHT22;27262;-35.248;149.138;2023-12-20T12:33:29;22.20;59.20
41533;DHT22;27262;-35.248;149.138;2023-12-20T12:36:00;22.20;59.30
41533;DHT22;27262;-35.248;149.138;2023-12-20T12:38:31;22.20;59.30
41533;DHT22;27262;-35.248;149.138;2023-12-20T12:41:01;22.20;59.30
41533;DHT22;27262;-35.248;149.138;2023-12-20T12:43:32;22.20;59.30
41533;DHT22;27262;-35.248;149.138;2023-12-20T12:46:03;22.20;59.30
41533;DHT22;27262;-35.248;149.138;2023-12-20T12:48:34;22.20;59.30
41533;DHT22;27262;-35.248;149.138;2023-12-20T12:51:05;22.10;59.30
41533;DHT22;27262;-35.248;149.138;2023-12-20T12:53:36;22.10;59.30
41533;DHT22;27262;-35.248;149.138;2023-12-20T12:56:07;22.10;59.30
41533;DHT22;27262;-35.248;149.138;2023-12-20T12:58:37;22.10;59.30
41533;DHT22;27262;-35.248;149.138;2023-12-20T13:01:08;22.10;59.30
41533;DHT22;27262;-35.248;149.138;2023-12-20T13:03:38;22.10;59.30
41533;DHT22;27262;-35.248;149.138;2023-12-20T13:06:08;22.10;59.30
41533;DHT22;27262;-35.248;149.138;2023-12-20T13:08:39;22.10;59.30
41533;DHT22;27262;-35.248;149.138;2023-12-20T13:11:09;22.10;59.40
41533;DHT22;27262;-35.248;149.138;2023-12-20T13:13:39;22.10;59.50
41533;DHT22;27262;-35.248;149.138;2023-12-20T13:16:30;22.10;59.50
41533;DHT22;27262;-35.248;149.138;2023-12-20T13:19:00;22.10;59.60
41533;DHT22;27262;-35.248;149.138;2023-12-20T13:21:31;22.10;59.60
41533;DHT22;27262;-35.248;149.138;2023-12-20T13:24:01;22.10;59.60
41533;DHT22;27262;-35.248;149.138;2023-12-20T13:26:31;22.00;59.50
41533;DHT22;27262;-35.248;149.138;2023-12-20T13:29:02;22.00;59.50
41533;DHT22;27262;-35.248;149.138;2023-12-20T13:31:32;22.00;59.60
41533;DHT22;27262;-35.248;149.138;2023-12-20T13:34:03;22.00;59.60
41533;DHT22;27262;-35.248;149.138;2023-12-20T13:36:33;22.00;59.70
41533;DHT22;27262;-35.248;149.138;2023-12-20T13:39:05;22.00;59.70
41533;DHT22;27262;-35.248;149.138;2023-12-20T13:41:36;22.00;59.70
41533;DHT22;27262;-35.248;149.138;2023-12-20T13:44:07;22.00;59.70
41533;DHT22;27262;-35.248;149.138;2023-12-20T13:46:38;22.00;59.80
41533;DHT22;27262;-35.248;149.138;2023-12-20T13:49:08;22.00;59.80
41533;DHT22;27262;-35.248;149.138;2023-12-20T13:51:38;22.00;59.80
41533;DHT22;27262;-35.248;149.138;2023-12-20T13:54:09;22.00;59.80
41533;DHT22;27262;-35.248;149.138;2023-12-20T13:56:40;22.00;59.90
41533;DHT22;27262;-35.248;149.138;2023-12-20T13:59:28;21.90;59.80
41533;DHT22;27262;-35.248;149.138;2023-12-20T14:01:58;21.90;59.80
41533;DHT22;27262;-35.248;149.138;2023-12-20T14:04:32;21.90;59.90
41533;DHT22;27262;-35.248;149.138;2023-12-20T14:07:10;21.90;60.00
41533;DHT22;27262;-35.248;149.138;2023-12-20T14:09:41;21.90;60.10
41533;DHT22;27262;-35.248;149.138;2023-12-20T14:12:15;21.90;60.10
41533;DHT22;27262;-35.248;149.138;2023-12-20T14:14:45;21.90;60.10
41533;DHT22;27262;-35.248;149.138;2023-12-20T14:17:16;21.90;60.20
41533;DHT22;27262;-35.248;149.138;2023-12-20T14:19:47;21.90;60.20
41533;DHT22;27262;-35.248;149.138;2023-12-20T14:22:17;21.90;60.30
41533;DHT22;27262;-35.248;149.138;2023-12-20T14:24:48;21.90;60.30
41533;DHT22;27262;-35.248;149.138;2023-12-20T14:27:40;21.90;60.30
41533;DHT22;27262;-35.248;149.138;2023-12-20T14:30:13;21.80;60.40
41533;DHT22;27262;-35.248;149.138;2023-12-20T14:32:44;21.90;60.40
41533;DHT22;27262;-35.248;149.138;2023-12-20T14:35:14;21.80;60.50
41533;DHT22;27262;-35.248;149.138;2023-12-20T14:37:44;21.80;60.50
41533;DHT22;27262;-35.248;149.138;2023-12-20T14:40:15;21.80;60.50
41533;DHT22;27262;-35.248;149.138;2023-12-20T14:42:46;21.80;60.60
41533;DHT22;27262;-35.248;149.138;2023-12-20T14:45:17;21.80;60.60
41533;DHT22;27262;-35.248;149.138;2023-12-20T14:47:48;21.80;60.60
41533;DHT22;27262;-35.248;149.138;2023-12-20T14:50:19;21.80;60.60
41533;DHT22;27262;-35.248;149.138;2023-12-20T14:52:49;21.80;60.60
41533;DHT22;27262;-35.248;149.138;2023-12-20T14:55:22;21.80;60.70
41533;DHT22;27262;-35.248;149.138;2023-12-20T14:57:54;21.80;60.60
41533;DHT22;27262;-35.248;149.138;2023-12-20T15:00:27;21.80;60.70
41533;DHT22;27262;-35.248;149.138;2023-12-20T15:02:57;21.70;60.80
41533;DHT22;27262;-35.248;149.138;2023-12-20T15:05:28;21.80;60.80
41533;DHT22;27262;-35.248;149.138;2023-12-20T15:07:58;21.80;60.90
41533;DHT22;27262;-35.248;149.138;2023-12-20T15:10:29;21.80;60.90
41533;DHT22;27262;-35.248;149.138;2023-12-20T15:13:00;21.80;60.90
41533;DHT22;27262;-35.248;149.138;2023-12-20T15:15:30;21.70;60.90
41533;DHT22;27262;-35.248;149.138;2023-12-20T15:18:03;21.70;60.90
41533;DHT22;27262;-35.248;149.138;2023-12-20T15:20:33;21.70;60.90
41533;DHT22;27262;-35.248;149.138;2023-12-20T15:23:07;21.70;60.90